createdAt,value
2023-04-24T00:00:15.981Z,1.55
2023-04-24T00:02:48.242Z,4.07
2023-04-24T00:05:16.583Z,1.13
2023-04-24T00:07:43.260Z,1.40
2023-04-24T00:10:10.867Z,1.83
2023-04-24T00:12:38.278Z,2.83
2023-04-24T00:15:05.954Z,2.75
2023-04-24T00:17:32.688Z,2.13
2023-04-24T00:20:00.929Z,1.17
2023-04-24T00:22:28.885Z,1.42
2023-04-24T00:24:56.017Z,1.33
2023-04-24T00:27:22.632Z,1.00
2023-04-24T00:29:49.323Z,2.17
2023-04-24T00:32:16.305Z,1.65
2023-04-24T00:34:43.141Z,1.00
2023-04-24T00:37:09.927Z,1.55
2023-04-24T00:39:36.583Z,1.27
2023-04-24T00:42:03.409Z,2.47
2023-04-24T00:44:30.085Z,4.07
2023-04-24T00:46:57.100Z,2.30
2023-04-24T00:49:24.048Z,1.80
2023-04-24T00:51:52.171Z,1.67
2023-04-24T00:54:19.317Z,1.65
2023-04-24T00:56:46.403Z,2.50
2023-04-24T00:59:13.949Z,1.10
2023-04-24T01:01:43.918Z,1.40
2023-04-24T01:04:12.220Z,2.45
2023-04-24T01:06:41.101Z,0.85
2023-04-24T01:09:11.436Z,1.55
2023-04-24T01:11:38.566Z,1.33
2023-04-24T01:14:05.543Z,1.42
2023-04-24T01:16:32.210Z,1.10
2023-04-24T01:18:58.935Z,1.33
2023-04-24T01:21:31.025Z,1.08
2023-04-24T01:23:57.776Z,2.40
2023-04-24T01:26:26.466Z,1.08
2023-04-24T01:28:53.786Z,2.10
2023-04-24T01:31:20.835Z,0.85
2023-04-24T01:33:48.447Z,1.40
2023-04-24T01:36:15.264Z,1.10
2023-04-24T01:38:41.951Z,3.10
2023-04-24T01:41:08.697Z,2.05
2023-04-24T01:43:35.516Z,1.30
2023-04-24T01:46:02.477Z,1.23
2023-04-24T01:48:29.464Z,2.90
2023-04-24T01:50:57.624Z,4.57
2023-04-24T01:53:24.326Z,1.20
2023-04-24T01:55:51.036Z,1.33
2023-04-24T01:58:17.782Z,2.28
2023-04-24T02:00:44.481Z,3.47
2023-04-24T02:03:11.235Z,3.17
2023-04-24T02:05:38.035Z,2.30
2023-04-24T02:08:04.714Z,1.92
2023-04-24T02:10:31.394Z,1.58
2023-04-24T02:12:58.075Z,4.10
2023-04-24T02:15:24.747Z,2.90
2023-04-24T02:17:51.435Z,2.70
2023-04-24T02:20:18.597Z,3.15
2023-04-24T02:22:45.263Z,1.17
2023-04-24T02:25:11.997Z,4.03
2023-04-24T02:27:38.665Z,2.30
2023-04-24T02:30:06.021Z,3.80
2023-04-24T02:32:32.651Z,2.25
2023-04-24T02:35:00.317Z,1.85
2023-04-24T02:37:27.068Z,2.35
2023-04-24T02:39:53.715Z,2.83
2023-04-24T02:42:20.357Z,3.28
2023-04-24T02:44:47.003Z,1.63
2023-04-24T02:47:13.680Z,1.60
2023-04-24T02:49:40.454Z,1.98
2023-04-24T02:52:07.301Z,2.08
2023-04-24T02:54:33.939Z,2.80
2023-04-24T02:57:02.184Z,1.75
2023-04-24T02:59:29.863Z,2.15
2023-04-24T03:01:56.499Z,3.20
2023-04-24T03:04:23.623Z,3.58
2023-04-24T03:06:52.664Z,2.15
2023-04-24T03:09:19.650Z,3.30
2023-04-24T03:11:46.340Z,2.72
2023-04-24T03:14:12.996Z,4.88
2023-04-24T03:16:39.740Z,2.33
2023-04-24T03:19:06.461Z,3.15
2023-04-24T03:21:33.231Z,2.72
2023-04-24T03:23:59.935Z,4.80
2023-04-24T03:26:26.618Z,3.58
2023-04-24T03:28:53.311Z,1.60
2023-04-24T03:31:22.141Z,1.58
2023-04-24T03:33:48.825Z,3.63
2023-04-24T03:36:15.520Z,1.13
2023-04-24T03:38:42.195Z,1.15
2023-04-24T03:41:08.853Z,2.35
2023-04-24T03:43:35.656Z,3.55
2023-04-24T03:46:03.054Z,1.38
2023-04-24T03:48:29.741Z,1.48
2023-04-24T03:50:56.492Z,1.83
2023-04-24T03:53:23.224Z,3.78
2023-04-24T03:55:50.094Z,1.13
2023-04-24T03:58:16.814Z,3.05
2023-04-24T04:00:45.419Z,1.83
2023-04-24T04:03:12.190Z,2.17
2023-04-24T04:05:38.971Z,1.23
2023-04-24T04:08:05.722Z,2.22
2023-04-24T04:10:32.489Z,2.88
2023-04-24T04:12:59.109Z,1.27
2023-04-24T04:15:25.757Z,3.38
2023-04-24T04:17:52.526Z,2.28
2023-04-24T04:20:19.196Z,3.63
2023-04-24T04:22:45.857Z,3.70
2023-04-24T04:25:14.430Z,3.85
2023-04-24T04:27:42.510Z,1.20
2023-04-24T04:30:10.717Z,2.10
2023-04-24T04:32:38.264Z,5.28
2023-04-24T04:35:05.551Z,3.88
2023-04-24T04:37:34.129Z,1.52
2023-04-24T04:40:01.531Z,1.60
2023-04-24T04:42:29.292Z,1.60
2023-04-24T04:44:58.311Z,5.55
2023-04-24T04:47:25.406Z,2.38
2023-04-24T04:49:52.856Z,5.20
2023-04-24T04:52:20.045Z,5.80
2023-04-24T04:54:47.281Z,4.25
2023-04-24T04:57:14.309Z,4.00
2023-04-24T04:59:42.313Z,4.80
2023-04-24T05:02:10.441Z,5.30
2023-04-24T05:04:37.267Z,2.95
2023-04-24T05:07:04.205Z,2.67
2023-04-24T05:09:30.852Z,2.20
2023-04-24T05:11:57.515Z,4.95
2023-04-24T05:14:24.212Z,3.15
2023-04-24T05:16:51.014Z,3.67
2023-04-24T05:19:17.774Z,6.03
2023-04-24T05:21:44.488Z,6.30
2023-04-24T05:24:11.125Z,5.00
2023-04-24T05:26:37.793Z,7.47
2023-04-24T05:29:04.939Z,2.35
2023-04-24T05:31:32.016Z,2.92
2023-04-24T05:33:58.749Z,2.92
2023-04-24T05:36:25.430Z,3.95
2023-04-24T05:38:52.077Z,2.88
2023-04-24T05:41:18.714Z,4.00
2023-04-24T05:43:45.504Z,4.63
2023-04-24T05:46:12.934Z,2.50
2023-04-24T05:48:39.607Z,2.22
2023-04-24T05:51:06.298Z,5.53
2023-04-24T05:53:32.965Z,3.65
2023-04-24T05:55:59.707Z,2.45
2023-04-24T05:58:26.619Z,1.90
2023-04-24T06:00:53.305Z,2.35
2023-04-24T06:03:20.144Z,3.17
2023-04-24T06:05:47.031Z,3.75
2023-04-24T06:08:14.563Z,3.53
2023-04-24T06:10:41.381Z,1.83
2023-04-24T06:13:08.107Z,1.83
2023-04-24T06:15:34.846Z,1.65
2023-04-24T06:18:01.603Z,3.30
2023-04-24T06:20:28.467Z,5.40
2023-04-24T06:22:55.567Z,3.22
2023-04-24T06:25:22.374Z,1.40
2023-04-24T06:27:49.149Z,5.80
2023-04-24T06:30:15.931Z,1.92
2023-04-24T06:32:42.705Z,1.17
2023-04-24T06:35:10.707Z,1.85
2023-04-24T06:37:37.579Z,1.58
2023-04-24T06:40:05.613Z,1.27
2023-04-24T06:42:33.815Z,4.25
2023-04-24T06:45:00.607Z,0.90
2023-04-24T06:47:27.434Z,4.15
2023-04-24T06:49:54.392Z,3.53
2023-04-24T06:52:21.104Z,1.95
2023-04-24T06:54:47.794Z,2.13
2023-04-24T06:57:14.588Z,4.47
2023-04-24T06:59:41.501Z,2.92
2023-04-24T07:02:08.405Z,2.42
2023-04-24T07:04:35.759Z,4.65
2023-04-24T07:07:04.194Z,2.00
2023-04-24T07:09:31.068Z,3.10
2023-04-24T07:11:57.811Z,0.70
2023-04-24T07:14:24.551Z,2.15
2023-04-24T07:16:51.247Z,4.32
2023-04-24T07:19:17.987Z,1.40
2023-04-24T07:21:44.651Z,1.05
2023-04-24T07:24:12.514Z,1.25
2023-04-24T07:26:42.516Z,1.80
2023-04-24T07:29:09.385Z,1.40
2023-04-24T07:31:36.447Z,4.95
2023-04-24T07:34:03.217Z,1.42
2023-04-24T07:36:30.008Z,1.30
2023-04-24T07:38:57.677Z,2.15
2023-04-24T07:41:25.373Z,1.23
2023-04-24T07:43:53.486Z,0.90
2023-04-24T07:46:21.030Z,1.00
2023-04-24T07:48:55.804Z,1.10
2023-04-24T07:51:27.095Z,3.20
2023-04-24T07:53:54.557Z,0.75
2023-04-24T07:56:21.702Z,1.40
2023-04-24T07:58:48.445Z,2.17
2023-04-24T08:01:15.134Z,1.88
2023-04-24T08:03:42.124Z,2.72
2023-04-24T08:06:10.354Z,1.40
2023-04-24T08:08:37.107Z,1.00
2023-04-24T08:11:03.797Z,2.15
2023-04-24T08:13:30.603Z,2.13
2023-04-24T08:15:58.396Z,3.80
2023-04-24T08:18:25.184Z,2.33
2023-04-24T08:20:51.919Z,2.13
2023-04-24T08:23:18.861Z,1.35
2023-04-24T08:25:45.686Z,4.97
2023-04-24T08:28:12.395Z,2.08
2023-04-24T08:30:39.577Z,3.75
2023-04-24T08:33:06.342Z,4.00
2023-04-24T08:35:33.104Z,8.68
2023-04-24T08:37:59.804Z,1.98
2023-04-24T08:40:32.481Z,2.25
2023-04-24T08:43:01.370Z,3.90
2023-04-24T08:45:28.365Z,3.65
2023-04-24T08:47:57.964Z,4.18
2023-04-24T08:50:25.232Z,1.77
2023-04-24T08:52:58.064Z,2.40
2023-04-24T08:55:26.381Z,4.78
2023-04-24T08:57:53.961Z,4.90
2023-04-24T09:00:22.391Z,2.88
2023-04-24T09:02:51.107Z,1.70
2023-04-24T09:05:19.855Z,2.20
2023-04-24T09:07:50.347Z,1.33
2023-04-24T09:10:17.155Z,2.55
2023-04-24T09:12:45.846Z,3.47
2023-04-24T09:15:13.152Z,3.15
2023-04-24T09:17:40.408Z,3.83
2023-04-24T09:20:07.972Z,3.78
2023-04-24T09:22:35.922Z,2.20
2023-04-24T09:25:10.099Z,1.85
2023-04-24T09:27:36.954Z,3.33
2023-04-24T09:30:04.533Z,3.90
2023-04-24T09:32:32.713Z,4.20
2023-04-24T09:35:13.098Z,3.55
2023-04-24T09:37:44.846Z,2.03
2023-04-24T09:40:15.670Z,2.85
2023-04-24T09:42:47.134Z,3.95
2023-04-24T09:45:15.406Z,1.98
2023-04-24T09:47:43.044Z,3.03
2023-04-24T09:50:20.200Z,1.80
2023-04-24T09:52:58.273Z,3.63
2023-04-24T09:55:26.338Z,3.65
2023-04-24T09:57:55.465Z,1.33
2023-04-24T10:00:41.180Z,2.70
2023-04-24T10:03:09.162Z,2.78
2023-04-24T10:05:37.713Z,3.50
2023-04-24T10:08:05.628Z,2.85
2023-04-24T10:10:34.774Z,3.60
2023-04-24T10:13:02.303Z,2.25
2023-04-24T10:15:29.159Z,1.38
2023-04-24T10:17:58.303Z,3.97
2023-04-24T10:20:27.589Z,2.92
2023-04-24T10:22:55.414Z,1.67
2023-04-24T10:25:31.307Z,3.40
2023-04-24T10:28:00.727Z,1.48
2023-04-24T10:30:30.025Z,1.05
2023-04-24T10:32:57.044Z,1.40
2023-04-24T10:35:27.616Z,1.38
2023-04-24T10:38:25.945Z,2.95
2023-04-24T10:40:52.678Z,0.80
2023-04-24T10:43:20.063Z,0.50
2023-04-24T10:46:03.991Z,1.15
2023-04-24T10:48:31.104Z,1.92
2023-04-24T10:50:57.830Z,1.10
2023-04-24T10:53:30.413Z,1.27
2023-04-24T10:56:06.936Z,1.73
2023-04-24T10:58:42.060Z,1.65
2023-04-24T11:01:09.436Z,2.23
2023-04-24T11:03:37.673Z,1.95
2023-04-24T11:06:09.546Z,1.90
2023-04-24T11:08:46.761Z,2.78
2023-04-24T11:11:16.738Z,2.70
2023-04-24T11:13:55.858Z,0.95
2023-04-24T11:16:36.546Z,2.05
2023-04-24T11:19:18.432Z,4.15
2023-04-24T11:21:46.594Z,6.22
2023-04-24T11:24:33.539Z,3.13
2023-04-24T11:27:22.554Z,1.30
2023-04-24T11:30:00.867Z,2.05
2023-04-24T11:32:28.016Z,1.77
2023-04-24T11:35:00.370Z,2.60
2023-04-24T11:37:40.000Z,0.93
2023-04-24T11:40:08.692Z,1.30
2023-04-24T11:42:37.078Z,2.90
2023-04-24T11:45:12.846Z,3.45
2023-04-24T11:47:40.475Z,1.40
2023-04-24T11:50:10.017Z,1.70
2023-04-24T11:52:42.154Z,4.20
2023-04-24T11:55:29.958Z,3.20
2023-04-24T11:57:58.971Z,2.70
2023-04-24T12:00:31.304Z,1.55
2023-04-24T12:03:12.685Z,1.05
2023-04-24T12:05:40.940Z,1.35
2023-04-24T12:08:08.138Z,2.85
2023-04-24T12:10:36.498Z,1.10
2023-04-24T12:13:03.688Z,1.45
2023-04-24T12:15:30.805Z,1.63
2023-04-24T12:17:58.001Z,3.35
2023-04-24T12:20:28.174Z,1.10
2023-04-24T12:22:59.904Z,1.65
2023-04-24T12:25:28.795Z,2.03
2023-04-24T12:28:04.563Z,0.88
2023-04-24T12:30:33.245Z,2.95
2023-04-24T12:33:01.470Z,2.50
2023-04-24T12:35:30.431Z,1.25
2023-04-24T12:37:57.172Z,2.15
2023-04-24T12:40:27.088Z,4.28
2023-04-24T12:42:54.707Z,2.55
2023-04-24T12:45:24.311Z,1.92
2023-04-24T12:47:51.157Z,1.58
2023-04-24T12:50:18.139Z,1.65
2023-04-24T12:52:45.504Z,1.98
2023-04-24T12:55:13.232Z,1.98
2023-04-24T12:57:41.016Z,2.97
2023-04-24T13:00:09.241Z,2.17
2023-04-24T13:02:36.450Z,3.67
2023-04-24T13:05:03.761Z,2.42
2023-04-24T13:07:30.746Z,2.97
2023-04-24T13:10:01.059Z,1.05
2023-04-24T13:12:27.935Z,2.13
2023-04-24T13:14:54.778Z,2.50
2023-04-24T13:17:21.645Z,1.02
2023-04-24T13:19:51.987Z,2.65
2023-04-24T13:22:21.995Z,1.10
2023-04-24T13:24:49.843Z,3.53
2023-04-24T13:27:17.804Z,3.17
2023-04-24T13:29:47.610Z,2.05
2023-04-24T13:32:15.074Z,1.65
2023-04-24T13:34:41.896Z,1.17
2023-04-24T13:37:09.047Z,1.45
2023-04-24T13:39:36.158Z,0.65
2023-04-24T13:42:04.791Z,0.75
2023-04-24T13:44:32.107Z,0.85
2023-04-24T13:46:59.325Z,0.95
2023-04-24T13:49:26.852Z,1.63
2023-04-24T13:51:55.010Z,1.63
2023-04-24T13:54:21.802Z,1.35
2023-04-24T13:56:48.513Z,1.75
2023-04-24T13:59:15.350Z,3.47
2023-04-24T14:01:42.068Z,4.07
2023-04-24T14:04:08.981Z,4.75
2023-04-24T14:06:35.891Z,2.65
2023-04-24T14:09:02.752Z,1.30
2023-04-24T14:11:29.825Z,2.70
2023-04-24T14:13:59.736Z,1.23
2023-04-24T14:16:26.484Z,10.98
2023-04-24T14:18:53.203Z,1.35
2023-04-24T14:21:19.961Z,3.03
2023-04-24T14:23:47.227Z,3.10
2023-04-24T14:26:17.169Z,3.08
2023-04-24T14:28:43.884Z,1.85
2023-04-24T14:31:10.685Z,1.40
2023-04-24T14:33:37.360Z,1.77
2023-04-24T14:36:05.336Z,1.67
2023-04-24T14:38:32.536Z,1.40
2023-04-24T14:41:07.228Z,2.05
2023-04-24T14:43:36.112Z,2.35
2023-04-24T14:46:03.676Z,3.13
2023-04-24T14:48:31.002Z,1.63
2023-04-24T14:50:57.847Z,2.50
2023-04-24T14:53:24.639Z,4.40
2023-04-24T14:55:51.393Z,1.67
2023-04-24T14:58:18.105Z,2.65
2023-04-24T15:00:44.773Z,3.13
2023-04-24T15:03:11.704Z,3.63
2023-04-24T15:05:39.248Z,3.40
2023-04-24T15:08:06.056Z,2.05
2023-04-24T15:10:32.777Z,3.92
2023-04-24T15:12:59.650Z,3.25
2023-04-24T15:15:26.559Z,3.85
2023-04-24T15:17:53.332Z,3.15
2023-04-24T15:20:20.473Z,3.60
2023-04-24T15:22:47.216Z,3.15
2023-04-24T15:25:13.922Z,2.90
2023-04-24T15:27:44.688Z,2.42
2023-04-24T15:30:12.039Z,4.25
2023-04-24T15:32:39.593Z,2.05
2023-04-24T15:35:09.156Z,3.97
2023-04-24T15:37:37.737Z,1.95
2023-04-24T15:40:06.504Z,2.47
2023-04-24T15:42:33.601Z,1.80
2023-04-24T15:45:00.365Z,3.63
2023-04-24T15:47:27.276Z,3.90
2023-04-24T15:49:54.639Z,2.63
2023-04-24T15:52:21.937Z,3.53
2023-04-24T15:54:48.645Z,2.40
2023-04-24T15:57:15.459Z,2.80
2023-04-24T15:59:42.296Z,3.10
2023-04-24T16:02:11.823Z,3.30
2023-04-24T16:04:38.777Z,1.95
2023-04-24T16:07:05.671Z,2.08
2023-04-24T16:09:32.332Z,2.42
2023-04-24T16:11:59.090Z,2.30
2023-04-24T16:14:26.468Z,2.22
2023-04-24T16:16:53.260Z,3.88
2023-04-24T16:19:19.909Z,4.13
2023-04-24T16:21:46.564Z,2.95
2023-04-24T16:24:13.297Z,3.75
2023-04-24T16:26:40.199Z,5.35
2023-04-24T16:29:06.873Z,3.13
2023-04-24T16:31:33.905Z,5.60
2023-04-24T16:34:00.833Z,6.72
2023-04-24T16:36:28.613Z,4.15
2023-04-24T16:38:55.399Z,3.00
2023-04-24T16:41:22.066Z,5.72
2023-04-24T16:43:48.722Z,1.95
2023-04-24T16:46:15.606Z,7.53
2023-04-24T16:48:42.265Z,6.70
2023-04-24T16:51:08.907Z,1.73
2023-04-24T16:53:35.946Z,3.35
2023-04-24T16:56:03.463Z,2.75
2023-04-24T16:58:30.861Z,2.10
2023-04-24T17:00:58.480Z,1.98
2023-04-24T17:03:25.532Z,3.88
2023-04-24T17:05:52.456Z,4.75
2023-04-24T17:08:19.506Z,3.30
2023-04-24T17:10:46.210Z,3.05
2023-04-24T17:13:14.379Z,5.75
2023-04-24T17:15:42.246Z,2.50
2023-04-24T17:18:09.012Z,2.70
2023-04-24T17:20:35.744Z,4.28
2023-04-24T17:23:02.415Z,5.28
2023-04-24T17:25:29.850Z,3.50
2023-04-24T17:27:56.569Z,4.85
2023-04-24T17:30:23.305Z,2.38
2023-04-24T17:32:50.060Z,11.20
2023-04-24T17:35:16.917Z,3.78
2023-04-24T17:37:43.738Z,5.15
2023-04-24T17:40:11.542Z,24.10
2023-04-24T17:42:41.218Z,5.60
2023-04-24T17:45:08.542Z,4.93
2023-04-24T17:47:35.704Z,6.13
2023-04-24T17:50:02.818Z,5.50
2023-04-24T17:52:29.461Z,8.40
2023-04-24T17:54:56.119Z,12.75
2023-04-24T17:57:22.821Z,8.80
2023-04-24T17:59:49.599Z,6.05
2023-04-24T18:02:16.373Z,5.80
2023-04-24T18:04:43.512Z,5.90
2023-04-24T18:07:10.454Z,4.15
2023-04-24T18:09:37.178Z,3.55
2023-04-24T18:12:04.167Z,3.28
2023-04-24T18:14:30.909Z,4.43
2023-04-24T18:16:58.282Z,4.47
2023-04-24T18:19:25.289Z,8.73
2023-04-24T18:21:51.955Z,4.82
2023-04-24T18:24:19.594Z,18.65
2023-04-24T18:26:46.383Z,26.67
2023-04-24T18:29:13.124Z,27.77
2023-04-24T18:31:39.871Z,34.58
2023-04-24T18:34:06.599Z,11.70
2023-04-24T18:36:33.423Z,11.77
2023-04-24T18:39:00.208Z,12.35
2023-04-24T18:41:27.071Z,8.25
2023-04-24T18:43:53.722Z,8.25
2023-04-24T18:46:20.442Z,10.65
2023-04-24T18:48:47.427Z,10.05
2023-04-24T18:51:14.985Z,12.48
2023-04-24T18:53:41.694Z,12.73
2023-04-24T18:56:08.383Z,9.73
2023-04-24T18:58:35.013Z,10.07
2023-04-24T19:01:01.835Z,11.75
2023-04-24T19:03:29.808Z,14.75
2023-04-24T19:05:56.672Z,17.33
2023-04-24T19:08:23.323Z,16.80
2023-04-24T19:10:51.137Z,10.05
2023-04-24T19:13:17.844Z,11.18
2023-04-24T19:15:44.485Z,14.15
2023-04-24T19:18:11.415Z,9.13
2023-04-24T19:20:38.184Z,10.20
2023-04-24T19:23:06.061Z,10.57
2023-04-24T19:25:32.766Z,8.38
2023-04-24T19:27:59.416Z,11.55
2023-04-24T19:30:26.158Z,9.90
2023-04-24T19:32:52.822Z,9.45
2023-04-24T19:35:19.556Z,10.32
2023-04-24T19:37:46.213Z,14.85
2023-04-24T19:40:13.037Z,11.98
2023-04-24T19:42:44.298Z,8.85
2023-04-24T19:45:14.565Z,8.55
2023-04-24T19:47:41.360Z,8.05
2023-04-24T19:50:08.871Z,15.02
2023-04-24T19:52:35.597Z,11.82
2023-04-24T19:55:02.439Z,10.68
2023-04-24T19:57:29.302Z,9.00
2023-04-24T19:59:55.916Z,7.88
2023-04-24T20:02:23.211Z,8.68
2023-04-24T20:04:50.169Z,7.40
2023-04-24T20:07:16.986Z,10.75
2023-04-24T20:09:43.742Z,7.72
2023-04-24T20:12:10.837Z,6.15
2023-04-24T20:14:37.475Z,5.28
2023-04-24T20:17:04.253Z,6.15
2023-04-24T20:19:30.934Z,6.60
2023-04-24T20:21:57.674Z,6.13
2023-04-24T20:24:24.365Z,6.15
2023-04-24T20:26:51.234Z,4.80
2023-04-24T20:29:17.955Z,4.55
2023-04-24T20:31:44.620Z,6.22
2023-04-24T20:34:11.855Z,6.10
2023-04-24T20:36:38.776Z,4.97
2023-04-24T20:39:06.748Z,5.75
2023-04-24T20:41:33.949Z,7.65
2023-04-24T20:44:00.947Z,5.32
2023-04-24T20:46:27.742Z,7.50
2023-04-24T20:48:54.404Z,4.97
2023-04-24T20:51:21.190Z,6.03
2023-04-24T20:53:49.419Z,6.78
2023-04-24T20:56:20.041Z,5.03
2023-04-24T20:58:47.851Z,4.63
2023-04-24T21:01:15.334Z,4.93
2023-04-24T21:03:42.627Z,6.00
2023-04-24T21:06:10.348Z,6.45
2023-04-24T21:08:37.703Z,7.53
2023-04-24T21:11:04.809Z,6.20
2023-04-24T21:13:31.508Z,7.05
2023-04-24T21:15:58.542Z,6.50
2023-04-24T21:18:26.232Z,8.80
2023-04-24T21:20:53.390Z,5.28
2023-04-24T21:23:20.224Z,7.15
2023-04-24T21:25:47.248Z,6.45
2023-04-24T21:28:14.010Z,9.70
2023-04-24T21:30:40.776Z,9.18
2023-04-24T21:33:07.532Z,12.60
2023-04-24T21:35:35.136Z,8.25
2023-04-24T21:38:01.827Z,6.05
2023-04-24T21:40:29.081Z,9.82
2023-04-24T21:42:56.580Z,6.80
2023-04-24T21:45:23.312Z,10.93
2023-04-24T21:47:50.061Z,6.32
2023-04-24T21:50:16.759Z,9.18
2023-04-24T21:52:43.490Z,8.50
2023-04-24T21:55:10.285Z,6.40
2023-04-24T21:57:37.031Z,8.70
2023-04-24T22:00:06.468Z,6.85
2023-04-24T22:02:33.953Z,6.30
2023-04-24T22:05:04.454Z,9.25
2023-04-24T22:07:35.163Z,6.90
2023-04-24T22:10:02.396Z,7.50
2023-04-24T22:12:29.139Z,7.07
2023-04-24T22:14:55.994Z,4.85
2023-04-24T22:17:23.490Z,4.75
2023-04-24T22:19:51.310Z,8.00
2023-04-24T22:22:18.217Z,7.47
2023-04-24T22:24:44.874Z,4.47
2023-04-24T22:27:11.538Z,5.65
2023-04-24T22:29:38.300Z,5.07
2023-04-24T22:32:05.367Z,5.00
2023-04-24T22:34:32.085Z,6.00
2023-04-24T22:36:58.742Z,4.30
2023-04-24T22:39:25.567Z,3.28
2023-04-24T22:41:52.814Z,7.03
2023-04-24T22:44:19.631Z,5.18
2023-04-24T22:46:47.574Z,7.90
2023-04-24T22:49:14.655Z,5.45
2023-04-24T22:51:41.874Z,6.13
2023-04-24T22:54:08.512Z,4.72
2023-04-24T22:56:36.018Z,5.82
2023-04-24T22:59:04.280Z,4.40
2023-04-24T23:01:31.208Z,5.70
2023-04-24T23:03:58.365Z,6.10
2023-04-24T23:06:25.912Z,3.65
2023-04-24T23:08:52.643Z,5.47
2023-04-24T23:11:20.005Z,4.40
2023-04-24T23:13:46.907Z,5.53
2023-04-24T23:16:13.826Z,3.97
2023-04-24T23:18:40.510Z,5.63
2023-04-24T23:21:07.540Z,5.57
2023-04-24T23:23:34.319Z,5.30
2023-04-24T23:26:01.395Z,4.30
2023-04-24T23:28:28.085Z,3.85
2023-04-24T23:30:54.899Z,4.00
2023-04-24T23:33:22.260Z,5.47
2023-04-24T23:35:49.036Z,5.47
2023-04-24T23:38:16.296Z,5.50
2023-04-24T23:40:43.013Z,6.88
2023-04-24T23:43:09.646Z,6.18
2023-04-24T23:45:36.845Z,6.63
2023-04-24T23:48:04.548Z,4.47
2023-04-24T23:50:31.553Z,4.15
2023-04-24T23:52:58.507Z,6.70
2023-04-24T23:55:25.373Z,2.95
2023-04-24T23:57:52.022Z,5.88
